Bertram, TX (78605)

7:47 AM CST on February 13, 2016 (GMT -0600)
Hidden Oak Estate in Liberty Hill, TX | | Change Station
CLOSE
Current Station
Personal Weather Station
Location: Liberty Hill, TX
Elevation: 1165 ft
Nearby Weather Stations

Elev 1165 ft 30.72 °N, 97.99 °W | Updated 1 minute ago

Clear
Clear
43.9 °F
Feels Like 43 °F
N
3.1
Wind Variable Wind from North
Gusts 4.0 mph

Today
High -- | Low -- °F
--% Chance of Precip.
Yesterday
High -- | Low -- °F
Precip. -- in
Pressure 30.33 in
Visibility 10.0 miles
Clouds Clear
Windchill 43 °F
Dew Point 37 °F
Humidity 77%
Rainfall 0.00 in
Snow Depth Not available.
7:15 AM 6:18 PM
Waxing Crescent, 31% visible
METAR KBMQ 131253Z AUTO 03007KT 10SM CLR 09/02 A3035 RMK AO2 SLP271 T00890017
Pressure 30.33 in
Visibility 10.0 miles
Clouds Clear
Windchill 43 °F
Dew Point 37 °F
Humidity 77%
Rainfall 0.00 in
Snow Depth Not available.
7:15 AM 6:18 PM
Waxing Crescent, 31% visible
METAR KBMQ 131253Z AUTO 03007KT 10SM CLR 09/02 A3035 RMK AO2 SLP271 T00890017

10-Day Weather Forecast

Almanac

Astronomy

Feb. 13, 2016 Rise Set
Actual Time
Civil Twilight
Nautical Twilight
Astronomical Twilight
Moon
Length of Visible Light
Length of Day
Tomorrow will be .
, % of the Moon is Illuminated

Today's Extremes

State Highs State Lows

Community

WunderPhotos

Upload Photos

1,892,547 photos uploaded!

WunderBlog® & News

Nearby

Air Quality

  Air Quality AQ Index Pollutant
Not available.

Snow Depth

Station Depth Elevation

Earthquake Activity

City Distance Mag. Time & Date
Minimum magnitude displayed is 2.5.

Coastal Water Temperatures

Place Temperature

Stations

Nearby Weather Stations

Station Location Temp. Windchill Dew Point Humidity Wind Precip. Elev Updated Type
                   

Watches & Warnings

There are currently no watches in effect.